Killeen — WDF3110 — position and weather

sailwx.info

Track history (hours):
 
Tides and Currents Weather Stations Pressure Air Temp Water Temp Dewpoint Dewpoint Depression Visibility Wind Speed Wind Dir Waves Ship Positions

Killeen

More information available from US FCC via Universal Licensing System and Coast Guard Vessel Documentation Center.

Last reported at 2014-Aug-31 08:27 UTC. Time now 2014-Sep-02 21:29 UTC.
Position N 32°41' W 117°09'.

Length 18 m; draft 2 m.

Type: Towing. MMSI: 367435980.

Date/timePositionNaut miles runAvg speedWind from/ knotsBaromVisibWave heightAir tempDewpointWater temp
2014-Aug-31 08:27N 32°41' W 117°09'3 2.8
2014-Aug-31 07:31N 32°43' W 117°11'4 3.9
2014-Aug-31 06:33N 32°40' W 117°14'5 4.6
2014-Aug-31 05:33N 32°37' W 117°18'3 2.5
2014-Aug-31 04:33N 32°37' W 117°21'3 3.2
2014-Aug-31 03:33N 32°38' W 117°17'3 3.4
2014-Aug-31 02:33N 32°39' W 117°14'3 3.2
2014-Aug-31 01:33N 32°43' W 117°13'4 1.8
2014-Aug-30 23:17N 32°42' W 117°09'0 0.0
2014-Aug-30 07:32N 32°41' W 117°09'3 3.1
2014-Aug-30 06:33N 32°43' W 117°12'5 5.1
2014-Aug-30 05:33N 32°38' W 117°14'6 5.5
2014-Aug-30 04:33N 32°37' W 117°20'0 0.3
2014-Aug-30 03:33N 32°37' W 117°20'3 3.3
2014-Aug-30 02:33N 32°38' W 117°16'3 2.8
2014-Aug-30 01:33N 32°40' W 117°14'3 3.3
2014-Aug-30 00:33N 32°43' W 117°13'4 1.7
2014-Aug-29 22:22N 32°42' W 117°09'0 0.2
2014-Aug-29 21:19N 32°41' W 117°09'  
2014-Aug-27 06:15N 32°42' W 117°09'2 2.1
2014-Aug-27 05:33N 32°42' W 117°10'3 3.1
2014-Aug-27 04:33N 32°42' W 117°14'5 4.9
2014-Aug-27 03:33N 32°37' W 117°17'3 3.3
2014-Aug-27 02:33N 32°37' W 117°21'3 3.3
2014-Aug-27 01:33N 32°38' W 117°17'3 3.4
2014-Aug-27 00:33N 32°40' W 117°14'3 3.1
2014-Aug-26 23:33N 32°43' W 117°13'4 0.2
2014-Aug-26 04:25N 32°41' W 117°09'4 4.1
2014-Aug-26 03:33N 32°43' W 117°12'5 5.3
2014-Aug-26 02:33N 32°38' W 117°14'5 5.2
2014-Aug-26 01:33N 32°36' W 117°20'1 0.7
2014-Aug-26 00:33N 32°37' W 117°20'4 4.0
2014-Aug-25 23:33N 32°38' W 117°15'3 3.0
2014-Aug-25 22:33N 32°40' W 117°14'3 3.0
2014-Aug-25 21:33N 32°43' W 117°12'3 0.1
2014-Aug-24 00:32N 32°42' W 117°09'3 3.5
2014-Aug-23 23:33N 32°43' W 117°13'4 3.6
2014-Aug-23 22:33N 32°39' W 117°14'2 1.6
2014-Aug-23 21:33N 32°38' W 117°15'4 3.7
2014-Aug-23 20:33N 32°37' W 117°19'2 1.6
2014-Aug-23 19:33N 32°37' W 117°21'11 0.7
2014-Aug-23 03:28N 32°41' W 117°09'3 3.2
2014-Aug-23 02:31N 32°43' W 117°12'6 5.5
2014-Aug-23 01:29N 32°38' W 117°14'5 5.5
2014-Aug-23 00:32N 32°37' W 117°20'2 1.6
2014-Aug-22 23:33N 32°37' W 117°19'4 4.0
2014-Aug-22 22:33N 32°38' W 117°14'3 3.3
2014-Aug-22 21:33N 32°41' W 117°14'3 3.0
2014-Aug-22 20:33N 32°43' W 117°11'  
Track history (hours):
 
Tides and Currents Weather Stations Pressure Air Temp Water Temp Dewpoint Dewpoint Depression Visibility Wind Speed Wind Dir Waves Ship Positions

Killeen

More information available from US FCC via Universal Licensing System and Coast Guard Vessel Documentation Center.

Last reported at 2014-Aug-31 08:27 UTC. Time now 2014-Sep-02 21:29 UTC.
Position N 32°41' W 117°09'.

Length 18 m; draft 2 m.

Type: Towing. MMSI: 367435980.

Date/timePositionNaut miles runAvg speedWind from/ knotsBaromVisibWave heightAir tempDewpointWater temp
2014-Aug-31 08:27N 32°41' W 117°09'3 2.8
2014-Aug-31 07:31N 32°43' W 117°11'4 3.9
2014-Aug-31 06:33N 32°40' W 117°14'5 4.6
2014-Aug-31 05:33N 32°37' W 117°18'3 2.5
2014-Aug-31 04:33N 32°37' W 117°21'3 3.2
2014-Aug-31 03:33N 32°38' W 117°17'3 3.4
2014-Aug-31 02:33N 32°39' W 117°14'3 3.2
2014-Aug-31 01:33N 32°43' W 117°13'4 1.8
2014-Aug-30 23:17N 32°42' W 117°09'0 0.0
2014-Aug-30 07:32N 32°41' W 117°09'3 3.1
2014-Aug-30 06:33N 32°43' W 117°12'5 5.1
2014-Aug-30 05:33N 32°38' W 117°14'6 5.5
2014-Aug-30 04:33N 32°37' W 117°20'0 0.3
2014-Aug-30 03:33N 32°37' W 117°20'3 3.3
2014-Aug-30 02:33N 32°38' W 117°16'3 2.8
2014-Aug-30 01:33N 32°40' W 117°14'3 3.3
2014-Aug-30 00:33N 32°43' W 117°13'4 1.7
2014-Aug-29 22:22N 32°42' W 117°09'0 0.2
2014-Aug-29 21:19N 32°41' W 117°09'  
2014-Aug-27 06:15N 32°42' W 117°09'2 2.1
2014-Aug-27 05:33N 32°42' W 117°10'3 3.1
2014-Aug-27 04:33N 32°42' W 117°14'5 4.9
2014-Aug-27 03:33N 32°37' W 117°17'3 3.3
2014-Aug-27 02:33N 32°37' W 117°21'3 3.3
2014-Aug-27 01:33N 32°38' W 117°17'3 3.4
2014-Aug-27 00:33N 32°40' W 117°14'3 3.1
2014-Aug-26 23:33N 32°43' W 117°13'4 0.2
2014-Aug-26 04:25N 32°41' W 117°09'4 4.1
2014-Aug-26 03:33N 32°43' W 117°12'5 5.3
2014-Aug-26 02:33N 32°38' W 117°14'5 5.2
2014-Aug-26 01:33N 32°36' W 117°20'1 0.7
2014-Aug-26 00:33N 32°37' W 117°20'4 4.0
2014-Aug-25 23:33N 32°38' W 117°15'3 3.0
2014-Aug-25 22:33N 32°40' W 117°14'3 3.0
2014-Aug-25 21:33N 32°43' W 117°12'3 0.1
2014-Aug-24 00:32N 32°42' W 117°09'3 3.5
2014-Aug-23 23:33N 32°43' W 117°13'4 3.6
2014-Aug-23 22:33N 32°39' W 117°14'2 1.6
2014-Aug-23 21:33N 32°38' W 117°15'4 3.7
2014-Aug-23 20:33N 32°37' W 117°19'2 1.6
2014-Aug-23 19:33N 32°37' W 117°21'11 0.7
2014-Aug-23 03:28N 32°41' W 117°09'3 3.2
2014-Aug-23 02:31N 32°43' W 117°12'6 5.5
2014-Aug-23 01:29N 32°38' W 117°14'5 5.5
2014-Aug-23 00:32N 32°37' W 117°20'2 1.6
2014-Aug-22 23:33N 32°37' W 117°19'4 4.0
2014-Aug-22 22:33N 32°38' W 117°14'3 3.3
2014-Aug-22 21:33N 32°41' W 117°14'3 3.0
2014-Aug-22 20:33N 32°43' W 117°11'  

Dump ship's entire track history